sensor_id;sensor_type;location;lat;lon;timestamp;pressure;altitude;pressure_sealevel;temperature;humidity
14067;BME280;7108;42.684;23.350;2022-12-18T00:02:21;95997.25;;;6.05;100.00
14067;BME280;7108;42.684;23.350;2022-12-18T00:04:47;96143.63;;;6.90;100.00
14067;BME280;7108;42.684;23.350;2022-12-18T00:07:12;96062.66;;;6.29;100.00
14067;BME280;7108;42.684;23.350;2022-12-18T00:09:38;96065.84;;;6.40;100.00
14067;BME280;7108;42.684;23.350;2022-12-18T00:12:03;96105.78;;;6.75;100.00
14067;BME280;7108;42.684;23.350;2022-12-18T00:14:29;96111.91;;;6.67;100.00
14067;BME280;7108;42.684;23.350;2022-12-18T00:16:54;96118.59;;;6.48;100.00
14067;BME280;7108;42.684;23.350;2022-12-18T00:19:20;96167.31;;;6.66;100.00
14067;BME280;7108;42.684;23.350;2022-12-18T00:21:46;96155.38;;;6.72;100.00
14067;BME280;7108;42.684;23.350;2022-12-18T00:24:11;96090.00;;;6.18;100.00
14067;BME280;7108;42.684;23.350;2022-12-18T00:26:38;96088.19;;;6.05;100.00
14067;BME280;7108;42.684;23.350;2022-12-18T00:29:15;96158.66;;;6.61;100.00
14067;BME280;7108;42.684;23.350;2022-12-18T00:31:41;96178.22;;;6.70;100.00
14067;BME280;7108;42.684;23.350;2022-12-18T00:34:10;96139.66;;;6.41;100.00
14067;BME280;7108;42.684;23.350;2022-12-18T00:36:36;96120.25;;;6.27;100.00
14067;BME280;7108;42.684;23.350;2022-12-18T00:39:04;96123.47;;;6.37;100.00
14067;BME280;7108;42.684;23.350;2022-12-18T00:41:30;96171.41;;;6.55;100.00
14067;BME280;7108;42.684;23.350;2022-12-18T00:44:15;96169.66;;;6.51;100.00
14067;BME280;7108;42.684;23.350;2022-12-18T00:46:42;96134.94;;;6.38;100.00
14067;BME280;7108;42.684;23.350;2022-12-18T00:49:08;96149.34;;;6.20;100.00
14067;BME280;7108;42.684;23.350;2022-12-18T00:51:34;96154.69;;;6.20;100.00
14067;BME280;7108;42.684;23.350;2022-12-18T00:54:00;96190.38;;;6.37;100.00
14067;BME280;7108;42.684;23.350;2022-12-18T00:56:25;96089.88;;;5.71;100.00
14067;BME280;7108;42.684;23.350;2022-12-18T00:58:50;96198.63;;;6.19;100.00
14067;BME280;7108;42.684;23.350;2022-12-18T01:01:16;96158.81;;;5.95;100.00
14067;BME280;7108;42.684;23.350;2022-12-18T01:03:42;96178.00;;;5.97;100.00
14067;BME280;7108;42.684;23.350;2022-12-18T01:06:09;96157.28;;;5.81;100.00
14067;BME280;7108;42.684;23.350;2022-12-18T01:08:35;96199.72;;;5.96;100.00
14067;BME280;7108;42.684;23.350;2022-12-18T01:11:07;96100.91;;;5.25;100.00
14067;BME280;7108;42.684;23.350;2022-12-18T01:13:33;96211.94;;;5.75;100.00
14067;BME280;7108;42.684;23.350;2022-12-18T01:15:59;96205.44;;;5.81;100.00
14067;BME280;7108;42.684;23.350;2022-12-18T01:18:24;96146.66;;;5.32;100.00
14067;BME280;7108;42.684;23.350;2022-12-18T01:20:50;96191.38;;;5.76;100.00
14067;BME280;7108;42.684;23.350;2022-12-18T01:23:17;96178.81;;;5.76;100.00
14067;BME280;7108;42.684;23.350;2022-12-18T01:25:43;96203.47;;;5.95;100.00
14067;BME280;7108;42.684;23.350;2022-12-18T01:28:11;96203.25;;;5.83;100.00
14067;BME280;7108;42.684;23.350;2022-12-18T01:30:37;96218.38;;;5.87;100.00
14067;BME280;7108;42.684;23.350;2022-12-18T01:33:04;96196.34;;;5.69;100.00
14067;BME280;7108;42.684;23.350;2022-12-18T01:35:30;96207.91;;;5.78;100.00
14067;BME280;7108;42.684;23.350;2022-12-18T01:37:56;96184.38;;;5.66;100.00
14067;BME280;7108;42.684;23.350;2022-12-18T01:40:22;96164.88;;;5.44;100.00
14067;BME280;7108;42.684;23.350;2022-12-18T01:42:53;96216.91;;;5.68;100.00
14067;BME280;7108;42.684;23.350;2022-12-18T01:45:26;96243.84;;;5.85;100.00
14067;BME280;7108;42.684;23.350;2022-12-18T01:48:01;96202.59;;;5.64;100.00
14067;BME280;7108;42.684;23.350;2022-12-18T01:50:39;96222.41;;;5.50;100.00
14067;BME280;7108;42.684;23.350;2022-12-18T01:55:53;96213.69;;;5.58;100.00
14067;BME280;7108;42.684;23.350;2022-12-18T01:58:23;96217.38;;;5.48;100.00
14067;BME280;7108;42.684;23.350;2022-12-18T02:00:54;96224.53;;;5.39;100.00
14067;BME280;7108;42.684;23.350;2022-12-18T02:03:22;96163.13;;;5.26;100.00
14067;BME280;7108;42.684;23.350;2022-12-18T02:06:13;96232.59;;;5.61;100.00
14067;BME280;7108;42.684;23.350;2022-12-18T02:08:54;96228.69;;;5.45;100.00
14067;BME280;7108;42.684;23.350;2022-12-18T02:14:43;96249.66;;;5.52;100.00
14067;BME280;7108;42.684;23.350;2022-12-18T02:17:16;96240.69;;;5.34;100.00
14067;BME280;7108;42.684;23.350;2022-12-18T02:20:12;96262.72;;;5.53;100.00
14067;BME280;7108;42.684;23.350;2022-12-18T02:23:47;96267.69;;;5.46;100.00
14067;BME280;7108;42.684;23.350;2022-12-18T02:26:06;96267.59;;;5.38;100.00
14067;BME280;7108;42.684;23.350;2022-12-18T02:28:41;96247.75;;;5.17;100.00
14067;BME280;7108;42.684;23.350;2022-12-18T02:31:12;96255.44;;;5.32;100.00
14067;BME280;7108;42.684;23.350;2022-12-18T02:33:40;96269.28;;;5.34;100.00
14067;BME280;7108;42.684;23.350;2022-12-18T02:36:06;96271.47;;;5.32;100.00
14067;BME280;7108;42.684;23.350;2022-12-18T02:38:33;96238.44;;;5.01;100.00
14067;BME280;7108;42.684;23.350;2022-12-18T02:41:00;96243.28;;;5.13;100.00
14067;BME280;7108;42.684;23.350;2022-12-18T02:43:25;96265.06;;;5.19;100.00
14067;BME280;7108;42.684;23.350;2022-12-18T02:45:57;96270.41;;;5.06;100.00
14067;BME280;7108;42.684;23.350;2022-12-18T02:48:25;96289.47;;;5.26;100.00
14067;BME280;7108;42.684;23.350;2022-12-18T02:51:02;96286.00;;;5.13;100.00
14067;BME280;7108;42.684;23.350;2022-12-18T02:53:55;96259.50;;;4.89;100.00
14067;BME280;7108;42.684;23.350;2022-12-18T02:56:35;96236.06;;;4.59;100.00
14067;BME280;7108;42.684;23.350;2022-12-18T02:59:14;96280.78;;;5.08;100.00
14067;BME280;7108;42.684;23.350;2022-12-18T03:01:54;96292.53;;;5.07;100.00
14067;BME280;7108;42.684;23.350;2022-12-18T03:06:58;96295.63;;;5.00;100.00
14067;BME280;7108;42.684;23.350;2022-12-18T03:09:35;96227.16;;;4.51;100.00
14067;BME280;7108;42.684;23.350;2022-12-18T03:12:15;96244.00;;;4.78;100.00
14067;BME280;7108;42.684;23.350;2022-12-18T03:17:27;96260.13;;;4.86;100.00
14067;BME280;7108;42.684;23.350;2022-12-18T03:19:56;96249.22;;;4.83;100.00
14067;BME280;7108;42.684;23.350;2022-12-18T03:22:27;96306.31;;;5.14;100.00
14067;BME280;7108;42.684;23.350;2022-12-18T03:24:56;96284.81;;;4.92;100.00
14067;BME280;7108;42.684;23.350;2022-12-18T03:27:24;96290.88;;;4.97;100.00
14067;BME280;7108;42.684;23.350;2022-12-18T03:30:03;96311.66;;;5.14;100.00
14067;BME280;7108;42.684;23.350;2022-12-18T03:32:39;96285.53;;;4.84;100.00
14067;BME280;7108;42.684;23.350;2022-12-18T03:35:08;96317.66;;;5.06;100.00
14067;BME280;7108;42.684;23.350;2022-12-18T03:37:36;96333.22;;;5.17;100.00
14067;BME280;7108;42.684;23.350;2022-12-18T03:40:02;96292.25;;;4.95;100.00
14067;BME280;7108;42.684;23.350;2022-12-18T03:42:48;96250.06;;;4.52;100.00
14067;BME280;7108;42.684;23.350;2022-12-18T03:45:23;96333.41;;;5.20;100.00
14067;BME280;7108;42.684;23.350;2022-12-18T03:48:04;96341.59;;;5.24;100.00
14067;BME280;7108;42.684;23.350;2022-12-18T03:50:45;96340.81;;;5.10;100.00
14067;BME280;7108;42.684;23.350;2022-12-18T03:53:32;96322.13;;;4.97;100.00
14067;BME280;7108;42.684;23.350;2022-12-18T03:56:01;96297.25;;;4.69;100.00
14067;BME280;7108;42.684;23.350;2022-12-18T03:58:28;96315.25;;;4.77;100.00
14067;BME280;7108;42.684;23.350;2022-12-18T04:00:59;96327.63;;;4.87;100.00
14067;BME280;7108;42.684;23.350;2022-12-18T04:03:28;96309.13;;;4.77;100.00
14067;BME280;7108;42.684;23.350;2022-12-18T04:05:55;96317.44;;;4.75;100.00
14067;BME280;7108;42.684;23.350;2022-12-18T04:08:23;96349.50;;;4.89;100.00
14067;BME280;7108;42.684;23.350;2022-12-18T04:10:49;96351.50;;;4.97;100.00
14067;BME280;7108;42.684;23.350;2022-12-18T04:13:23;96318.03;;;4.72;100.00
14067;BME280;7108;42.684;23.350;2022-12-18T04:15:49;96361.50;;;5.05;100.00
14067;BME280;7108;42.684;23.350;2022-12-18T04:18:14;96356.91;;;4.92;100.00
14067;BME280;7108;42.684;23.350;2022-12-18T04:20:40;96324.84;;;4.78;100.00
14067;BME280;7108;42.684;23.350;2022-12-18T04:23:05;96347.13;;;4.87;100.00
14067;BME280;7108;42.684;23.350;2022-12-18T04:25:31;96357.63;;;4.84;100.00
14067;BME280;7108;42.684;23.350;2022-12-18T04:27:56;96357.38;;;4.67;100.00
14067;BME280;7108;42.684;23.350;2022-12-18T04:30:21;96294.78;;;4.28;100.00
14067;BME280;7108;42.684;23.350;2022-12-18T04:32:47;96388.31;;;5.00;100.00
14067;BME280;7108;42.684;23.350;2022-12-18T04:35:12;96367.31;;;4.93;100.00
14067;BME280;7108;42.684;23.350;2022-12-18T04:37:38;96308.22;;;4.54;100.00
14067;BME280;7108;42.684;23.350;2022-12-18T04:40:03;96323.06;;;4.29;100.00
14067;BME280;7108;42.684;23.350;2022-12-18T04:42:29;96272.72;;;4.09;100.00
14067;BME280;7108;42.684;23.350;2022-12-18T04:44:54;96299.63;;;4.26;100.00
14067;BME280;7108;42.684;23.350;2022-12-18T04:47:20;96267.97;;;3.88;100.00
14067;BME280;7108;42.684;23.350;2022-12-18T04:49:45;96364.16;;;4.59;100.00
14067;BME280;7108;42.684;23.350;2022-12-18T04:52:10;96306.50;;;4.13;100.00
14067;BME280;7108;42.684;23.350;2022-12-18T04:54:36;96433.53;;;4.78;100.00
14067;BME280;7108;42.684;23.350;2022-12-18T04:57:01;96368.78;;;4.54;100.00
14067;BME280;7108;42.684;23.350;2022-12-18T04:59:27;96369.38;;;4.51;100.00
14067;BME280;7108;42.684;23.350;2022-12-18T05:01:52;96389.66;;;4.34;100.00
14067;BME280;7108;42.684;23.350;2022-12-18T05:04:18;96395.28;;;4.32;100.00
14067;BME280;7108;42.684;23.350;2022-12-18T05:06:43;96313.81;;;3.89;100.00
14067;BME280;7108;42.684;23.350;2022-12-18T05:09:08;96393.41;;;4.33;100.00
14067;BME280;7108;42.684;23.350;2022-12-18T05:11:34;96335.84;;;3.95;100.00
14067;BME280;7108;42.684;23.350;2022-12-18T05:13:59;96406.44;;;4.34;100.00
14067;BME280;7108;42.684;23.350;2022-12-18T05:16:25;96432.56;;;4.55;100.00
14067;BME280;7108;42.684;23.350;2022-12-18T05:18:50;96410.13;;;4.38;100.00
14067;BME280;7108;42.684;23.350;2022-12-18T05:21:16;96376.56;;;4.19;100.00
14067;BME280;7108;42.684;23.350;2022-12-18T05:23:41;96345.41;;;3.96;100.00
14067;BME280;7108;42.684;23.350;2022-12-18T05:26:07;96446.22;;;4.67;100.00
14067;BME280;7108;42.684;23.350;2022-12-18T05:28:34;96462.00;;;4.51;100.00
14067;BME280;7108;42.684;23.350;2022-12-18T05:31:01;96379.38;;;3.90;100.00
14067;BME280;7108;42.684;23.350;2022-12-18T05:33:31;96385.56;;;4.04;100.00
14067;BME280;7108;42.684;23.350;2022-12-18T05:35:59;96336.41;;;3.55;100.00
14067;BME280;7108;42.684;23.350;2022-12-18T05:38:26;96467.81;;;4.53;100.00
14067;BME280;7108;42.684;23.350;2022-12-18T05:40:52;96386.47;;;3.95;100.00
14067;BME280;7108;42.684;23.350;2022-12-18T05:43:20;96506.53;;;4.50;100.00
14067;BME280;7108;42.684;23.350;2022-12-18T05:45:50;96400.09;;;3.93;100.00
14067;BME280;7108;42.684;23.350;2022-12-18T05:48:16;96459.88;;;4.29;100.00
14067;BME280;7108;42.684;23.350;2022-12-18T05:50:45;96482.31;;;4.47;100.00
14067;BME280;7108;42.684;23.350;2022-12-18T05:53:16;96477.63;;;4.39;100.00
14067;BME280;7108;42.684;23.350;2022-12-18T05:55:43;96407.03;;;3.94;100.00
14067;BME280;7108;42.684;23.350;2022-12-18T05:58:10;96451.66;;;4.26;100.00
14067;BME280;7108;42.684;23.350;2022-12-18T06:00:38;96397.75;;;3.92;100.00
14067;BME280;7108;42.684;23.350;2022-12-18T06:03:08;96489.31;;;4.43;100.00
14067;BME280;7108;42.684;23.350;2022-12-18T06:05:38;96454.97;;;4.18;100.00
14067;BME280;7108;42.684;23.350;2022-12-18T06:08:05;96475.66;;;4.26;100.00
14067;BME280;7108;42.684;23.350;2022-12-18T06:10:33;96457.88;;;4.21;100.00
14067;BME280;7108;42.684;23.350;2022-12-18T06:12:59;96452.53;;;4.21;100.00
14067;BME280;7108;42.684;23.350;2022-12-18T06:15:25;96470.75;;;4.14;100.00
14067;BME280;7108;42.684;23.350;2022-12-18T06:17:51;96505.53;;;4.28;100.00
14067;BME280;7108;42.684;23.350;2022-12-18T06:20:16;96468.69;;;4.30;100.00
14067;BME280;7108;42.684;23.350;2022-12-18T06:22:42;96499.50;;;4.41;100.00
14067;BME280;7108;42.684;23.350;2022-12-18T06:25:08;96484.88;;;4.33;100.00
14067;BME280;7108;42.684;23.350;2022-12-18T06:27:33;96515.06;;;4.52;100.00
14067;BME280;7108;42.684;23.350;2022-12-18T06:29:59;96513.41;;;4.56;100.00
14067;BME280;7108;42.684;23.350;2022-12-18T06:32:25;96486.84;;;4.28;100.00
14067;BME280;7108;42.684;23.350;2022-12-18T06:34:51;96505.75;;;4.31;100.00
14067;BME280;7108;42.684;23.350;2022-12-18T06:37:16;96516.06;;;4.38;100.00
14067;BME280;7108;42.684;23.350;2022-12-18T06:39:55;96519.22;;;4.21;100.00
14067;BME280;7108;42.684;23.350;2022-12-18T06:42:22;96540.13;;;4.33;100.00
14067;BME280;7108;42.684;23.350;2022-12-18T06:44:47;96483.75;;;3.97;100.00
14067;BME280;7108;42.684;23.350;2022-12-18T06:47:13;96483.50;;;3.99;100.00
14067;BME280;7108;42.684;23.350;2022-12-18T06:49:38;96478.88;;;4.04;100.00
14067;BME280;7108;42.684;23.350;2022-12-18T06:52:04;96494.53;;;4.11;100.00
14067;BME280;7108;42.684;23.350;2022-12-18T06:54:29;96503.13;;;4.08;100.00
14067;BME280;7108;42.684;23.350;2022-12-18T06:56:56;96545.78;;;4.50;100.00
14067;BME280;7108;42.684;23.350;2022-12-18T06:59:24;96512.50;;;4.24;100.00
14067;BME280;7108;42.684;23.350;2022-12-18T07:01:50;96493.41;;;3.93;100.00
14067;BME280;7108;42.684;23.350;2022-12-18T07:04:15;96383.47;;;3.41;100.00
14067;BME280;7108;42.684;23.350;2022-12-18T07:06:41;96486.53;;;4.11;100.00
14067;BME280;7108;42.684;23.350;2022-12-18T07:09:06;96512.56;;;4.19;100.00
14067;BME280;7108;42.684;23.350;2022-12-18T07:11:38;96530.91;;;4.25;100.00
14067;BME280;7108;42.684;23.350;2022-12-18T07:14:06;96536.88;;;4.17;100.00
14067;BME280;7108;42.684;23.350;2022-12-18T07:16:32;96456.47;;;3.64;100.00
14067;BME280;7108;42.684;23.350;2022-12-18T07:18:57;96453.22;;;3.67;100.00
14067;BME280;7108;42.684;23.350;2022-12-18T07:21:24;96531.03;;;4.15;100.00
14067;BME280;7108;42.684;23.350;2022-12-18T07:23:50;96557.09;;;4.18;100.00
14067;BME280;7108;42.684;23.350;2022-12-18T07:26:18;96517.06;;;4.00;100.00
14067;BME280;7108;42.684;23.350;2022-12-18T07:28:44;96547.44;;;4.04;100.00
14067;BME280;7108;42.684;23.350;2022-12-18T07:31:12;96560.00;;;4.22;100.00
14067;BME280;7108;42.684;23.350;2022-12-18T07:33:38;96562.13;;;4.01;100.00
14067;BME280;7108;42.684;23.350;2022-12-18T07:36:07;96579.56;;;4.17;100.00
14067;BME280;7108;42.684;23.350;2022-12-18T07:38:34;96567.00;;;4.18;100.00
14067;BME280;7108;42.684;23.350;2022-12-18T07:41:05;96549.00;;;4.05;100.00
14067;BME280;7108;42.684;23.350;2022-12-18T07:43:34;96548.09;;;4.14;100.00
14067;BME280;7108;42.684;23.350;2022-12-18T07:45:59;96587.31;;;4.37;100.00
14067;BME280;7108;42.684;23.350;2022-12-18T07:48:25;96588.94;;;4.33;100.00
14067;BME280;7108;42.684;23.350;2022-12-18T07:50:52;96534.34;;;4.02;100.00
14067;BME280;7108;42.684;23.350;2022-12-18T07:53:18;96516.50;;;3.80;100.00
14067;BME280;7108;42.684;23.350;2022-12-18T07:55:43;96569.66;;;4.18;100.00
14067;BME280;7108;42.684;23.350;2022-12-18T07:58:09;96599.59;;;4.33;100.00
14067;BME280;7108;42.684;23.350;2022-12-18T08:00:35;96579.31;;;4.14;100.00
14067;BME280;7108;42.684;23.350;2022-12-18T08:03:03;96607.66;;;4.28;100.00
14067;BME280;7108;42.684;23.350;2022-12-18T08:05:28;96618.03;;;4.35;100.00
14067;BME280;7108;42.684;23.350;2022-12-18T08:07:54;96593.97;;;4.16;100.00
14067;BME280;7108;42.684;23.350;2022-12-18T08:10:20;96618.69;;;4.22;100.00
14067;BME280;7108;42.684;23.350;2022-12-18T08:12:49;96588.44;;;4.08;100.00
14067;BME280;7108;42.684;23.350;2022-12-18T08:15:15;96597.75;;;4.10;100.00
14067;BME280;7108;42.684;23.350;2022-12-18T08:17:40;96573.22;;;3.85;100.00
14067;BME280;7108;42.684;23.350;2022-12-18T08:20:06;96611.44;;;4.04;100.00
14067;BME280;7108;42.684;23.350;2022-12-18T08:22:35;96646.72;;;4.19;100.00
14067;BME280;7108;42.684;23.350;2022-12-18T08:25:05;96541.41;;;3.42;100.00
14067;BME280;7108;42.684;23.350;2022-12-18T08:27:30;96567.38;;;3.60;100.00
14067;BME280;7108;42.684;23.350;2022-12-18T08:29:56;96626.13;;;4.01;100.00
14067;BME280;7108;42.684;23.350;2022-12-18T08:32:22;96657.09;;;4.21;100.00
14067;BME280;7108;42.684;23.350;2022-12-18T08:34:48;96618.50;;;3.90;100.00
14067;BME280;7108;42.684;23.350;2022-12-18T08:37:13;96666.34;;;4.28;100.00
14067;BME280;7108;42.684;23.350;2022-12-18T08:39:39;96550.16;;;3.47;100.00
14067;BME280;7108;42.684;23.350;2022-12-18T08:42:04;96622.47;;;4.16;100.00
14067;BME280;7108;42.684;23.350;2022-12-18T08:44:48;96627.75;;;4.21;100.00
14067;BME280;7108;42.684;23.350;2022-12-18T08:47:13;96636.88;;;4.20;100.00
14067;BME280;7108;42.684;23.350;2022-12-18T08:49:39;96626.75;;;4.17;100.00
14067;BME280;7108;42.684;23.350;2022-12-18T08:52:06;96650.88;;;4.30;100.00
14067;BME280;7108;42.684;23.350;2022-12-18T08:54:35;96624.84;;;4.22;100.00
14067;BME280;7108;42.684;23.350;2022-12-18T08:57:00;96653.47;;;4.35;100.00
14067;BME280;7108;42.684;23.350;2022-12-18T08:59:26;96547.91;;;3.83;100.00
14067;BME280;7108;42.684;23.350;2022-12-18T09:01:53;96604.44;;;4.31;100.00
14067;BME280;7108;42.684;23.350;2022-12-18T09:04:20;96598.78;;;4.14;100.00
14067;BME280;7108;42.684;23.350;2022-12-18T09:06:45;96651.78;;;4.44;100.00
14067;BME280;7108;42.684;23.350;2022-12-18T09:09:11;96638.59;;;4.29;100.00
14067;BME280;7108;42.684;23.350;2022-12-18T09:11:37;96649.81;;;4.31;100.00
14067;BME280;7108;42.684;23.350;2022-12-18T09:14:03;96640.59;;;4.19;100.00
14067;BME280;7108;42.684;23.350;2022-12-18T09:16:29;96597.91;;;3.95;100.00
14067;BME280;7108;42.684;23.350;2022-12-18T09:18:55;96641.84;;;4.26;100.00
14067;BME280;7108;42.684;23.350;2022-12-18T09:21:26;96646.84;;;4.33;100.00
14067;BME280;7108;42.684;23.350;2022-12-18T09:23:53;96640.19;;;4.30;100.00
14067;BME280;7108;42.684;23.350;2022-12-18T09:26:20;96621.28;;;4.27;100.00
14067;BME280;7108;42.684;23.350;2022-12-18T09:28:46;96647.53;;;4.43;100.00
14067;BME280;7108;42.684;23.350;2022-12-18T09:31:12;96630.31;;;4.31;100.00
14067;BME280;7108;42.684;23.350;2022-12-18T09:33:38;96657.94;;;4.45;100.00
14067;BME280;7108;42.684;23.350;2022-12-18T09:36:06;96635.56;;;4.41;100.00
14067;BME280;7108;42.684;23.350;2022-12-18T09:38:32;96632.66;;;4.37;100.00
14067;BME280;7108;42.684;23.350;2022-12-18T09:41:36;96654.44;;;4.67;100.00
14067;BME280;7108;42.684;23.350;2022-12-18T09:44:15;96639.13;;;4.54;100.00
14067;BME280;7108;42.684;23.350;2022-12-18T09:46:49;96636.69;;;4.35;100.00
14067;BME280;7108;42.684;23.350;2022-12-18T09:49:18;96633.69;;;4.41;100.00
14067;BME280;7108;42.684;23.350;2022-12-18T09:51:50;96649.69;;;4.64;100.00
14067;BME280;7108;42.684;23.350;2022-12-18T09:54:25;96593.53;;;4.28;100.00
14067;BME280;7108;42.684;23.350;2022-12-18T09:56:54;96629.59;;;4.49;100.00
14067;BME280;7108;42.684;23.350;2022-12-18T09:59:36;96642.69;;;4.68;100.00
14067;BME280;7108;42.684;23.350;2022-12-18T10:02:20;96642.97;;;4.67;100.00
14067;BME280;7108;42.684;23.350;2022-12-18T10:07:43;96615.34;;;4.35;100.00
14067;BME280;7108;42.684;23.350;2022-12-18T10:18:25;96651.16;;;4.52;100.00
14067;BME280;7108;42.684;23.350;2022-12-18T10:21:00;96647.47;;;4.48;100.00
14067;BME280;7108;42.684;23.350;2022-12-18T10:26:05;96643.22;;;4.47;100.00
14067;BME280;7108;42.684;23.350;2022-12-18T10:28:35;96655.25;;;4.68;100.00
14067;BME280;7108;42.684;23.350;2022-12-18T10:31:01;96656.91;;;4.82;100.00
14067;BME280;7108;42.684;23.350;2022-12-18T10:33:30;96642.72;;;4.87;100.00
14067;BME280;7108;42.684;23.350;2022-12-18T10:35:57;96658.03;;;5.00;100.00
14067;BME280;7108;42.684;23.350;2022-12-18T10:38:25;96662.88;;;4.98;100.00
14067;BME280;7108;42.684;23.350;2022-12-18T10:40:57;96637.91;;;5.07;100.00
14067;BME280;7108;42.684;23.350;2022-12-18T10:43:34;96640.78;;;5.11;100.00
14067;BME280;7108;42.684;23.350;2022-12-18T10:46:24;96634.63;;;5.10;100.00
14067;BME280;7108;42.684;23.350;2022-12-18T10:48:54;96633.25;;;5.13;100.00
14067;BME280;7108;42.684;23.350;2022-12-18T10:51:28;96634.63;;;5.10;100.00
14067;BME280;7108;42.684;23.350;2022-12-18T10:54:02;96636.16;;;5.16;100.00
14067;BME280;7108;42.684;23.350;2022-12-18T10:56:30;96619.69;;;4.91;100.00
14067;BME280;7108;42.684;23.350;2022-12-18T10:59:04;96632.41;;;4.99;100.00
14067;BME280;7108;42.684;23.350;2022-12-18T11:04:19;96588.56;;;4.63;100.00
14067;BME280;7108;42.684;23.350;2022-12-18T11:07:06;96625.47;;;4.98;100.00
14067;BME280;7108;42.684;23.350;2022-12-18T11:09:37;96595.78;;;4.81;100.00
14067;BME280;7108;42.684;23.350;2022-12-18T11:14:47;96627.69;;;5.09;100.00
14067;BME280;7108;42.684;23.350;2022-12-18T11:17:29;96520.22;;;4.25;100.00
14067;BME280;7108;42.684;23.350;2022-12-18T11:19:57;96605.41;;;5.00;100.00
14067;BME280;7108;42.684;23.350;2022-12-18T11:22:28;96603.81;;;4.99;100.00
14067;BME280;7108;42.684;23.350;2022-12-18T11:25:00;96626.69;;;5.05;100.00
14067;BME280;7108;42.684;23.350;2022-12-18T11:27:26;96635.56;;;5.01;100.00
14067;BME280;7108;42.684;23.350;2022-12-18T11:30:15;96649.06;;;5.09;100.00
14067;BME280;7108;42.684;23.350;2022-12-18T11:33:13;96650.19;;;5.08;100.00
14067;BME280;7108;42.684;23.350;2022-12-18T11:38:28;96624.81;;;5.06;100.00
14067;BME280;7108;42.684;23.350;2022-12-18T11:40:59;96636.91;;;4.80;100.00
14067;BME280;7108;42.684;23.350;2022-12-18T11:43:34;96647.56;;;5.03;100.00
14067;BME280;7108;42.684;23.350;2022-12-18T11:46:10;96653.25;;;4.97;100.00
14067;BME280;7108;42.684;23.350;2022-12-18T11:48:54;96645.09;;;4.88;100.00
14067;BME280;7108;42.684;23.350;2022-12-18T11:51:38;96634.19;;;5.03;100.00
14067;BME280;7108;42.684;23.350;2022-12-18T11:54:16;96642.66;;;5.10;100.00
14067;BME280;7108;42.684;23.350;2022-12-18T11:56:55;96652.25;;;5.11;100.00
14067;BME280;7108;42.684;23.350;2022-12-18T12:08:01;96641.50;;;5.16;100.00
14067;BME280;7108;42.684;23.350;2022-12-18T12:13:52;96644.88;;;5.03;100.00
14067;BME280;7108;42.684;23.350;2022-12-18T12:21:37;96635.88;;;5.18;100.00
14067;BME280;7108;42.684;23.350;2022-12-18T12:30:30;96627.47;;;5.24;100.00
14067;BME280;7108;42.684;23.350;2022-12-18T12:33:27;96641.06;;;5.27;100.00
14067;BME280;7108;42.684;23.350;2022-12-18T12:38:46;96647.63;;;5.17;100.00
14067;BME280;7108;42.684;23.350;2022-12-18T12:41:18;96656.47;;;5.17;100.00
14067;BME280;7108;42.684;23.350;2022-12-18T12:44:07;96598.31;;;4.91;100.00
14067;BME280;7108;42.684;23.350;2022-12-18T12:46:37;96646.78;;;5.21;100.00
14067;BME280;7108;42.684;23.350;2022-12-18T12:49:12;96652.25;;;5.29;100.00
14067;BME280;7108;42.684;23.350;2022-12-18T12:51:41;96642.66;;;5.28;100.00
14067;BME280;7108;42.684;23.350;2022-12-18T12:54:23;96661.13;;;5.43;100.00
14067;BME280;7108;42.684;23.350;2022-12-18T12:57:07;96660.66;;;5.41;100.00
14067;BME280;7108;42.684;23.350;2022-12-18T12:59:56;96656.09;;;5.42;100.00
14067;BME280;7108;42.684;23.350;2022-12-18T13:05:36;96661.72;;;5.40;100.00
14067;BME280;7108;42.684;23.350;2022-12-18T13:08:12;96655.16;;;5.33;100.00
14067;BME280;7108;42.684;23.350;2022-12-18T13:10:50;96617.53;;;5.11;100.00
14067;BME280;7108;42.684;23.350;2022-12-18T13:13:54;96670.03;;;5.20;100.00
14067;BME280;7108;42.684;23.350;2022-12-18T13:16:24;96684.25;;;5.16;100.00
14067;BME280;7108;42.684;23.350;2022-12-18T13:18:55;96689.88;;;5.15;100.00
14067;BME280;7108;42.684;23.350;2022-12-18T13:21:28;96683.81;;;5.09;100.00
14067;BME280;7108;42.684;23.350;2022-12-18T13:23:54;96683.31;;;5.07;100.00
14067;BME280;7108;42.684;23.350;2022-12-18T13:28:51;96671.00;;;4.88;100.00
14067;BME280;7108;42.684;23.350;2022-12-18T13:34:20;96690.81;;;5.05;100.00
14067;BME280;7108;42.684;23.350;2022-12-18T13:36:46;96701.41;;;5.10;100.00
14067;BME280;7108;42.684;23.350;2022-12-18T13:41:45;96702.78;;;5.08;100.00
14067;BME280;7108;42.684;23.350;2022-12-18T13:46:59;96690.44;;;5.12;100.00
14067;BME280;7108;42.684;23.350;2022-12-18T13:49:32;96680.63;;;5.07;100.00
14067;BME280;7108;42.684;23.350;2022-12-18T13:52:02;96719.63;;;5.26;100.00
14067;BME280;7108;42.684;23.350;2022-12-18T13:54:37;96713.72;;;5.29;100.00
14067;BME280;7108;42.684;23.350;2022-12-18T13:57:05;96714.38;;;5.40;100.00
14067;BME280;7108;42.684;23.350;2022-12-18T13:59:37;96719.50;;;5.36;100.00
14067;BME280;7108;42.684;23.350;2022-12-18T14:02:18;96713.94;;;5.33;100.00
14067;BME280;7108;42.684;23.350;2022-12-18T14:04:47;96738.94;;;5.42;100.00
14067;BME280;7108;42.684;23.350;2022-12-18T14:07:14;96729.53;;;5.44;100.00
14067;BME280;7108;42.684;23.350;2022-12-18T14:09:46;96696.06;;;5.10;100.00
14067;BME280;7108;42.684;23.350;2022-12-18T14:12:25;96708.59;;;5.15;100.00
14067;BME280;7108;42.684;23.350;2022-12-18T14:17:58;96731.50;;;5.39;100.00
14067;BME280;7108;42.684;23.350;2022-12-18T14:20:26;96727.59;;;5.31;100.00
14067;BME280;7108;42.684;23.350;2022-12-18T14:22:52;96732.66;;;5.33;100.00
14067;BME280;7108;42.684;23.350;2022-12-18T14:25:26;96737.84;;;5.43;100.00
14067;BME280;7108;42.684;23.350;2022-12-18T14:33:16;96744.97;;;5.29;100.00
14067;BME280;7108;42.684;23.350;2022-12-18T14:36:04;96743.34;;;5.33;100.00
14067;BME280;7108;42.684;23.350;2022-12-18T14:41:06;96751.84;;;5.35;100.00